Aeroporto :
LOGIN :

Iscrizione | Disclaimer

   EN    FR    IT 

 










Sommario :    VFR   VFR Marginale   IFR   IFR Intensivo   IFR Molto Intensivo
Visibilità : 
Base nubi : 
>= 8 km
>= 3000ft
5 / 8 km
1000 / 3000 ft
1500m / 5 km
500 / 1000 ft
800 / 1500m
200 / 500 ft
< 800m
< 200 ft
Simboli :   Temporali  Nebbia  Neve Forte  Precipitazioni Forti  Vento > 20 kt
SIGMETs :   Varie  Temporali  Ghiacco  Turbolenza  Onda orograficha  Ceneri Vulcaniche







- Altitudine del aeroporto : 989 ft
- Codice IATA : TRN


LIMF - Torino Caselle

ULTIMO METAR :
  • 200920Z 11003KT 050V160 CAVOK 10/M01 Q1031

METARs OBSOLETI :
  • 200850Z VRB02KT 9999 FEW060 09/M02 Q1031
  • 200820Z 13003KT 090V160 9999 SCT060 09/M02 Q1031
  • 200750Z 07002KT 9999 SCT060 07/M01 Q1030
  • 200720Z VRB02KT 9999 SCT060 08/M03 Q1030
  • 200650Z VRB02KT 9999 SCT060 05/M01 Q1030

TAF TAF LIMF
Valido dal 20 a 06 ore il 21 a 06 ore UTC


200500Z 2006/2106 VRB05KT 9999 SCT060
Nessun NOTAM noto per questo aeroporto.



MetMap, La meteo Aeronautica in un colpo d'occhio ! - Copyright ORBIFLY Dicembre 2007 - Disclaimer

ORBIFLY MET'MAP TEAM :

Programmazione e sviluppo : Alexandra Zaïnal
Concezione e sviluppo : Baudouin d'Aumeries
Co-Programmazione e sviluppo : Marc-Olivier Méhu
Supporto tecnico e logistico : Manuel Goepfert
Aiuto per la traduzione : Arnaldo La Scala

Contatto : metmap@orbifly.com




FONTI E CREDITI :

   NOAA